createdAt,value
2019-03-23T00:02:22.737Z,7.70
2019-03-23T00:04:54.322Z,7.40
2019-03-23T00:07:25.937Z,7.50
2019-03-23T00:09:58.728Z,7.30
2019-03-23T00:12:30.788Z,7.30
2019-03-23T00:15:02.399Z,7.20
2019-03-23T00:17:34.131Z,7.20
2019-03-23T00:20:07.640Z,7.20
2019-03-23T00:22:39.901Z,7.30
2019-03-23T00:25:11.917Z,7.40
2019-03-23T00:27:43.557Z,7.20
2019-03-23T00:30:15.550Z,7.10
2019-03-23T00:32:47.297Z,7.00
2019-03-23T00:35:19.235Z,6.90
2019-03-23T00:37:50.856Z,6.70
2019-03-23T00:40:22.462Z,6.50
2019-03-23T00:42:54.059Z,6.60
2019-03-23T00:45:25.736Z,6.60
2019-03-23T00:47:57.339Z,6.50
2019-03-23T00:50:29.022Z,6.50
2019-03-23T00:53:00.659Z,6.50
2019-03-23T00:55:32.322Z,6.40
2019-03-23T00:58:03.913Z,6.30
2019-03-23T01:00:35.587Z,6.00
2019-03-23T01:03:07.287Z,6.00
2019-03-23T01:05:39.964Z,5.90
2019-03-23T01:08:11.592Z,5.70
2019-03-23T01:10:43.234Z,5.80
2019-03-23T01:13:14.946Z,5.80
2019-03-23T01:15:48.140Z,5.80
2019-03-23T01:18:19.951Z,5.80
2019-03-23T01:20:51.649Z,5.70
2019-03-23T01:23:23.907Z,5.60
2019-03-23T01:25:55.523Z,5.60
2019-03-23T01:28:27.192Z,5.60
2019-03-23T01:30:58.932Z,5.60
2019-03-23T01:33:30.611Z,5.60
2019-03-23T01:36:02.473Z,5.50
2019-03-23T01:38:34.108Z,5.50
2019-03-23T01:41:05.855Z,5.50
2019-03-23T01:43:38.764Z,5.50
2019-03-23T01:46:10.375Z,5.50
2019-03-23T01:48:42.035Z,5.40
2019-03-23T01:51:13.749Z,5.40
2019-03-23T01:53:45.380Z,5.40
2019-03-23T01:56:17.038Z,5.40
2019-03-23T01:58:48.672Z,5.40
2019-03-23T02:01:20.284Z,5.40
2019-03-23T02:03:52.335Z,5.40
2019-03-23T02:06:24.097Z,5.30
2019-03-23T02:08:55.770Z,5.40
2019-03-23T02:11:27.351Z,5.40
2019-03-23T02:13:58.980Z,5.50
2019-03-23T02:16:30.670Z,5.60
2019-03-23T02:19:02.395Z,5.70
2019-03-23T02:21:34.047Z,5.60
2019-03-23T02:24:05.659Z,5.60
2019-03-23T02:26:37.263Z,5.60
2019-03-23T02:29:08.931Z,5.50
2019-03-23T02:31:40.617Z,5.50
2019-03-23T02:34:12.271Z,5.50
2019-03-23T02:36:44.386Z,5.50
2019-03-23T02:39:16.115Z,5.40
2019-03-23T02:41:47.791Z,5.40
2019-03-23T02:44:19.506Z,5.40
2019-03-23T02:46:51.118Z,5.30
2019-03-23T02:49:22.817Z,5.30
2019-03-23T02:51:54.536Z,5.20
2019-03-23T02:54:26.123Z,5.20
2019-03-23T02:56:57.821Z,5.20
2019-03-23T02:59:31.244Z,5.20
2019-03-23T03:02:03.328Z,5.20
2019-03-23T03:04:35.093Z,5.20
2019-03-23T03:07:06.874Z,5.20
2019-03-23T03:09:38.521Z,5.20
2019-03-23T03:12:10.142Z,5.30
2019-03-23T03:14:41.841Z,5.30
2019-03-23T03:17:13.494Z,5.20
2019-03-23T03:19:45.090Z,5.20
2019-03-23T03:22:16.789Z,5.20
2019-03-23T03:24:48.476Z,5.20
2019-03-23T03:27:20.175Z,5.10
2019-03-23T03:29:52.239Z,5.00
2019-03-23T03:32:23.860Z,5.00
2019-03-23T03:34:55.456Z,5.00
2019-03-23T03:37:28.856Z,5.00
2019-03-23T03:40:00.548Z,4.90
2019-03-23T03:42:32.238Z,4.90
2019-03-23T03:45:04.059Z,4.90
2019-03-23T03:47:35.988Z,4.80
2019-03-23T03:50:08.048Z,4.30
2019-03-23T03:52:39.824Z,4.20
2019-03-23T03:55:11.801Z,4.20
2019-03-23T03:57:43.430Z,4.30
2019-03-23T04:00:15.226Z,4.20
2019-03-23T04:02:57.699Z,4.10
2019-03-23T04:05:29.327Z,4.20
2019-03-23T04:08:10.861Z,4.20
2019-03-23T04:10:34.405Z,4.20
2019-03-23T04:13:06.076Z,4.10
2019-03-23T04:15:37.713Z,4.20
2019-03-23T04:18:09.348Z,4.10
2019-03-23T04:20:40.972Z,4.10
2019-03-23T04:23:12.623Z,4.00
2019-03-23T04:25:44.334Z,4.20
2019-03-23T04:28:15.945Z,4.20
2019-03-23T04:30:47.625Z,4.30
2019-03-23T04:33:19.238Z,4.30
2019-03-23T04:35:51.032Z,4.30
2019-03-23T04:38:23.414Z,4.30
2019-03-23T04:40:55.338Z,4.20
2019-03-23T04:43:27.614Z,4.00
2019-03-23T04:45:59.297Z,4.00
2019-03-23T04:48:30.918Z,4.00
2019-03-23T04:51:02.570Z,4.10
2019-03-23T04:53:34.230Z,4.00
2019-03-23T04:56:05.820Z,3.70
2019-03-23T04:58:37.449Z,3.50
2019-03-23T05:01:09.065Z,3.60
2019-03-23T05:03:41.050Z,3.50
2019-03-23T05:06:12.905Z,3.40
2019-03-23T05:08:49.807Z,3.50
2019-03-23T05:11:21.436Z,3.50
2019-03-23T05:13:53.087Z,3.70
2019-03-23T05:16:24.702Z,3.70
2019-03-23T05:18:56.347Z,3.50
2019-03-23T05:21:28.211Z,3.30
2019-03-23T05:23:59.957Z,3.20
2019-03-23T05:26:31.560Z,3.20
2019-03-23T05:29:03.317Z,3.20
2019-03-23T05:31:35.049Z,3.20
2019-03-23T05:34:06.766Z,3.30
2019-03-23T05:36:38.491Z,3.30
2019-03-23T05:39:10.604Z,3.20
2019-03-23T05:41:42.228Z,3.30
2019-03-23T05:44:14.019Z,3.40
2019-03-23T05:46:45.606Z,3.50
2019-03-23T05:49:17.238Z,3.50
2019-03-23T05:51:48.853Z,3.60
2019-03-23T05:54:20.568Z,3.60
2019-03-23T05:56:52.264Z,3.50
2019-03-23T05:59:23.972Z,3.60
2019-03-23T06:01:55.624Z,3.50
2019-03-23T06:04:34.602Z,3.40
2019-03-23T06:07:06.225Z,3.40
2019-03-23T06:09:37.893Z,3.30
2019-03-23T06:12:09.547Z,3.30
2019-03-23T06:14:41.741Z,3.30
2019-03-23T06:17:16.836Z,3.20
2019-03-23T06:19:48.541Z,3.20
2019-03-23T06:22:20.163Z,3.20
2019-03-23T06:24:51.779Z,3.20
2019-03-23T06:27:23.446Z,3.30
2019-03-23T06:29:55.127Z,3.30
2019-03-23T06:32:27.010Z,3.40
2019-03-23T06:34:58.898Z,3.40
2019-03-23T06:37:30.569Z,3.50
2019-03-23T06:40:02.316Z,3.70
2019-03-23T06:42:33.988Z,3.70
2019-03-23T06:45:06.767Z,3.70
2019-03-23T06:47:38.468Z,3.70
2019-03-23T06:50:11.368Z,3.90
2019-03-23T06:52:43.006Z,3.90
2019-03-23T06:55:14.647Z,4.10
2019-03-23T06:57:46.269Z,4.00
2019-03-23T07:00:17.929Z,3.80
2019-03-23T07:02:49.527Z,3.70
2019-03-23T07:05:21.271Z,3.60
2019-03-23T07:07:53.189Z,3.60
2019-03-23T07:10:24.973Z,3.80
2019-03-23T07:12:56.576Z,3.70
2019-03-23T07:15:28.190Z,3.80
2019-03-23T07:17:59.781Z,3.80
2019-03-23T07:20:33.015Z,4.00
2019-03-23T07:23:04.630Z,4.10
2019-03-23T07:25:36.431Z,4.20
2019-03-23T07:28:08.103Z,4.30
2019-03-23T07:30:59.765Z,4.50
2019-03-23T07:33:31.365Z,4.60
2019-03-23T07:36:03.098Z,4.70
2019-03-23T07:38:35.218Z,5.00
2019-03-23T07:41:07.044Z,5.40
2019-03-23T07:43:38.834Z,5.40
2019-03-23T07:46:10.627Z,5.50
2019-03-23T07:48:42.531Z,5.80
2019-03-23T07:51:14.192Z,5.90
2019-03-23T07:53:45.989Z,5.90
2019-03-23T07:56:17.812Z,6.00
2019-03-23T07:58:49.426Z,6.30
2019-03-23T08:01:21.027Z,6.50
2019-03-23T08:03:52.672Z,6.70
2019-03-23T08:06:24.631Z,6.70
2019-03-23T08:08:56.311Z,6.70
2019-03-23T08:11:28.085Z,7.00
2019-03-23T08:13:59.728Z,7.20
2019-03-23T08:16:31.678Z,7.30
2019-03-23T08:19:03.487Z,7.50
2019-03-23T08:21:35.172Z,7.50
2019-03-23T08:24:07.131Z,7.60
2019-03-23T08:26:38.923Z,7.40
2019-03-23T08:29:10.809Z,7.50
2019-03-23T08:31:42.969Z,7.70
2019-03-23T08:34:14.627Z,8.10
2019-03-23T08:36:46.642Z,8.30
2019-03-23T08:39:18.362Z,8.10
2019-03-23T08:41:50.155Z,8.00
2019-03-23T08:44:21.819Z,8.20
2019-03-23T08:46:53.516Z,8.50
2019-03-23T08:49:25.542Z,8.70
2019-03-23T08:51:57.707Z,8.90
2019-03-23T08:54:30.803Z,8.80
2019-03-23T08:57:02.480Z,8.90
2019-03-23T08:59:34.375Z,9.10
2019-03-23T09:02:06.148Z,9.40
2019-03-23T09:04:38.581Z,9.60
2019-03-23T09:07:11.502Z,9.70
2019-03-23T09:09:43.114Z,9.70
2019-03-23T09:12:14.823Z,10.10
2019-03-23T09:14:46.546Z,10.40
2019-03-23T09:17:18.203Z,10.50
2019-03-23T09:19:50.267Z,10.70
2019-03-23T09:22:40.670Z,11.00
2019-03-23T09:25:12.307Z,11.10
2019-03-23T09:27:44.437Z,11.20
2019-03-23T09:30:16.332Z,11.10
2019-03-23T09:32:48.059Z,11.50
2019-03-23T09:35:19.676Z,11.90
2019-03-23T09:37:51.394Z,12.10
2019-03-23T09:40:23.117Z,12.20
2019-03-23T09:42:54.989Z,12.10
2019-03-23T09:45:26.815Z,12.10
2019-03-23T09:47:58.531Z,12.10
2019-03-23T09:50:30.586Z,12.30
2019-03-23T09:53:02.217Z,12.40
2019-03-23T09:55:34.111Z,12.50
2019-03-23T09:58:05.749Z,12.80
2019-03-23T10:00:38.579Z,13.00
2019-03-23T10:03:10.271Z,13.10
2019-03-23T10:05:41.918Z,13.40
2019-03-23T10:08:13.672Z,13.50
2019-03-23T10:10:45.747Z,13.90
2019-03-23T10:13:17.399Z,14.10
2019-03-23T10:15:49.064Z,14.20
2019-03-23T10:18:21.059Z,14.30
2019-03-23T10:20:52.842Z,14.60
2019-03-23T10:23:24.869Z,14.70
2019-03-23T10:25:56.628Z,14.90
2019-03-23T10:28:28.246Z,15.10
2019-03-23T10:31:00.279Z,15.20
2019-03-23T10:33:33.389Z,15.50
2019-03-23T10:36:05.287Z,15.60
2019-03-23T10:38:37.046Z,16.00
2019-03-23T10:41:08.696Z,16.10
2019-03-23T10:43:40.579Z,16.60
2019-03-23T10:46:12.279Z,16.90
2019-03-23T10:48:43.982Z,17.30
2019-03-23T10:51:15.937Z,17.50
2019-03-23T10:53:47.695Z,17.10
2019-03-23T10:56:19.351Z,16.90
2019-03-23T10:58:51.599Z,17.50
2019-03-23T11:01:42.020Z,17.20
2019-03-23T11:04:13.931Z,17.40
2019-03-23T11:06:45.701Z,17.70
2019-03-23T11:09:17.755Z,18.10
2019-03-23T11:11:49.643Z,18.40
2019-03-23T11:14:21.283Z,18.30
2019-03-23T11:16:52.971Z,18.70
2019-03-23T11:19:25.051Z,18.80
2019-03-23T11:21:56.735Z,19.30
2019-03-23T11:24:28.581Z,19.80
2019-03-23T11:27:00.636Z,20.10
2019-03-23T11:29:32.283Z,20.20
2019-03-23T11:32:04.197Z,20.20
2019-03-23T11:34:35.890Z,20.10
2019-03-23T11:37:07.568Z,19.90
2019-03-23T11:39:40.933Z,20.00
2019-03-23T11:42:12.567Z,19.60
2019-03-23T11:44:45.473Z,19.70
2019-03-23T11:47:17.234Z,20.60
2019-03-23T11:49:48.940Z,21.10
2019-03-23T11:52:20.736Z,20.40
2019-03-23T11:54:52.695Z,20.80
2019-03-23T11:57:24.372Z,20.50
2019-03-23T11:59:56.273Z,20.10
2019-03-23T12:02:29.004Z,20.20
2019-03-23T12:05:01.706Z,20.70
2019-03-23T12:07:34.444Z,21.40
2019-03-23T12:10:07.445Z,21.30
2019-03-23T12:12:39.416Z,21.60
2019-03-23T12:15:12.314Z,22.60
2019-03-23T12:17:44.029Z,22.60
2019-03-23T12:20:15.658Z,21.60
2019-03-23T12:22:47.342Z,21.50
2019-03-23T12:25:18.955Z,21.40
2019-03-23T12:27:50.873Z,21.60
2019-03-23T12:30:22.636Z,21.30
2019-03-23T12:32:54.271Z,21.30
2019-03-23T12:35:37.645Z,20.60
2019-03-23T12:38:09.262Z,20.70
2019-03-23T12:40:41.191Z,21.00
2019-03-23T12:43:13.767Z,21.30
2019-03-23T12:45:46.297Z,21.00
2019-03-23T12:48:17.981Z,21.80
2019-03-23T12:50:49.981Z,23.20
2019-03-23T12:53:21.817Z,23.90
2019-03-23T12:55:53.477Z,23.50
2019-03-23T12:58:25.535Z,22.40
2019-03-23T13:00:57.163Z,22.40
2019-03-23T13:03:28.777Z,21.90
2019-03-23T13:06:00.405Z,21.70
2019-03-23T13:08:32.053Z,22.30
2019-03-23T13:11:03.714Z,21.20
2019-03-23T13:13:35.355Z,21.80
2019-03-23T13:16:07.189Z,22.70
2019-03-23T13:18:38.839Z,23.30
2019-03-23T13:21:10.518Z,22.70
2019-03-23T13:23:42.177Z,22.90
2019-03-23T13:26:13.838Z,22.90
2019-03-23T13:28:45.636Z,22.80
2019-03-23T13:31:17.367Z,23.20
2019-03-23T13:33:49.042Z,23.70
2019-03-23T13:36:20.722Z,23.70
2019-03-23T13:38:52.331Z,23.20
2019-03-23T13:41:23.971Z,23.10
2019-03-23T13:43:55.874Z,23.60
2019-03-23T13:46:27.799Z,23.60
2019-03-23T13:48:59.483Z,24.40
2019-03-23T13:51:31.457Z,24.90
2019-03-23T13:54:03.085Z,24.20
2019-03-23T13:56:34.885Z,23.20
2019-03-23T13:59:06.831Z,22.30
2019-03-23T14:01:38.417Z,21.50
2019-03-23T14:04:10.039Z,21.80
2019-03-23T14:06:43.084Z,23.00
2019-03-23T14:09:15.677Z,24.00
2019-03-23T14:11:54.649Z,23.50
2019-03-23T14:14:20.895Z,22.90
2019-03-23T14:16:52.725Z,22.90
2019-03-23T14:19:24.475Z,23.60
2019-03-23T14:21:57.367Z,24.40
2019-03-23T14:24:29.245Z,24.00
2019-03-23T14:27:00.989Z,23.50
2019-03-23T14:29:32.661Z,24.30
2019-03-23T14:32:04.257Z,24.70
2019-03-23T14:34:35.895Z,24.90
2019-03-23T14:37:07.529Z,24.80
2019-03-23T14:39:39.184Z,25.10
2019-03-23T14:42:10.781Z,25.20
2019-03-23T14:44:42.397Z,25.30
2019-03-23T14:47:14.732Z,25.40
2019-03-23T14:49:46.368Z,25.20
2019-03-23T14:52:18.307Z,24.50
2019-03-23T14:54:49.985Z,24.90
2019-03-23T14:57:21.613Z,24.90
2019-03-23T14:59:53.311Z,24.70
2019-03-23T15:02:24.899Z,25.10
2019-03-23T15:04:56.709Z,25.50
2019-03-23T15:07:29.445Z,25.10
2019-03-23T15:10:01.087Z,25.30
2019-03-23T15:12:32.681Z,25.30
2019-03-23T15:15:05.551Z,25.10
2019-03-23T15:17:37.409Z,25.10
2019-03-23T15:20:09.293Z,25.20
2019-03-23T15:22:40.984Z,25.00
2019-03-23T15:25:13.915Z,24.90
2019-03-23T15:27:45.669Z,25.00
2019-03-23T15:30:17.569Z,25.10
2019-03-23T15:32:49.372Z,24.70
2019-03-23T15:35:20.975Z,24.40
2019-03-23T15:37:53.641Z,24.50
2019-03-23T15:40:25.289Z,24.80
2019-03-23T15:42:56.939Z,24.50
2019-03-23T15:45:28.607Z,24.40
2019-03-23T15:48:00.439Z,24.20
2019-03-23T15:50:32.115Z,24.20
2019-03-23T15:53:03.864Z,24.60
2019-03-23T15:55:35.567Z,24.60
2019-03-23T15:58:07.142Z,24.50
2019-03-23T16:00:38.840Z,24.70
2019-03-23T16:03:10.939Z,24.50
2019-03-23T16:05:42.544Z,24.40
2019-03-23T16:08:14.355Z,24.40
2019-03-23T16:10:45.984Z,24.10
2019-03-23T16:13:17.572Z,24.10
2019-03-23T16:15:49.185Z,24.00
2019-03-23T16:18:21.279Z,24.00
2019-03-23T16:20:52.915Z,23.80
2019-03-23T16:23:24.568Z,23.60
2019-03-23T16:25:56.262Z,23.30
2019-03-23T16:28:46.683Z,23.20
2019-03-23T16:31:18.319Z,23.20
2019-03-23T16:33:51.012Z,23.10
2019-03-23T16:36:22.668Z,23.10
2019-03-23T16:38:54.321Z,22.90
2019-03-23T16:41:25.937Z,22.80
2019-03-23T16:43:58.102Z,22.70
2019-03-23T16:46:30.205Z,22.40
2019-03-23T16:49:02.109Z,22.40
2019-03-23T16:51:33.740Z,22.30
2019-03-23T16:54:05.583Z,22.40
2019-03-23T16:56:37.271Z,22.20
2019-03-23T16:59:08.871Z,22.30
2019-03-23T17:01:40.515Z,22.20
2019-03-23T17:04:12.502Z,22.00
2019-03-23T17:06:46.653Z,21.70
2019-03-23T17:09:18.078Z,21.50
2019-03-23T17:11:49.801Z,21.30
2019-03-23T17:14:21.419Z,21.20
2019-03-23T17:16:53.053Z,21.10
2019-03-23T17:19:25.205Z,21.00
2019-03-23T17:21:56.927Z,20.80
2019-03-23T17:24:28.573Z,20.70
2019-03-23T17:27:01.342Z,20.70
2019-03-23T17:29:33.514Z,20.60
2019-03-23T17:32:05.384Z,20.40
2019-03-23T17:34:38.174Z,20.00
2019-03-23T17:37:09.856Z,19.70
2019-03-23T17:39:41.447Z,19.30
2019-03-23T17:42:13.125Z,19.00
2019-03-23T17:44:46.214Z,18.70
2019-03-23T17:47:18.133Z,18.30
2019-03-23T17:49:50.270Z,18.10
2019-03-23T17:52:21.905Z,18.00
2019-03-23T17:54:53.697Z,17.90
2019-03-23T17:57:25.560Z,17.80
2019-03-23T17:59:57.281Z,17.40
2019-03-23T18:02:29.336Z,17.20
2019-03-23T18:05:02.235Z,17.00
2019-03-23T18:07:34.277Z,16.80
2019-03-23T18:10:07.119Z,16.80
2019-03-23T18:12:38.858Z,16.70
2019-03-23T18:15:11.878Z,16.60
2019-03-23T18:17:43.705Z,16.40
2019-03-23T18:20:15.969Z,16.30
2019-03-23T18:22:47.849Z,16.20
2019-03-23T18:25:19.547Z,16.10
2019-03-23T18:27:51.237Z,16.00
2019-03-23T18:30:41.911Z,15.90
2019-03-23T18:33:14.304Z,15.70
2019-03-23T18:35:46.265Z,15.70
2019-03-23T18:38:19.116Z,15.50
2019-03-23T18:40:50.748Z,15.50
2019-03-23T18:43:27.371Z,15.40
2019-03-23T18:45:56.082Z,15.30
2019-03-23T18:48:28.201Z,15.20
2019-03-23T18:51:00.243Z,15.10
2019-03-23T18:53:32.238Z,15.00
2019-03-23T18:56:03.805Z,14.80
2019-03-23T18:58:35.434Z,14.70
2019-03-23T19:01:08.340Z,14.50
2019-03-23T19:03:40.477Z,14.50
2019-03-23T19:06:12.492Z,14.50
2019-03-23T19:08:44.203Z,14.40
2019-03-23T19:11:15.815Z,14.20
2019-03-23T19:13:47.475Z,14.20
2019-03-23T19:16:19.071Z,14.10
2019-03-23T19:18:50.768Z,13.90
2019-03-23T19:21:22.414Z,13.90
2019-03-23T19:23:54.205Z,13.80
2019-03-23T19:26:25.837Z,13.70
2019-03-23T19:28:57.726Z,13.70
2019-03-23T19:31:29.498Z,13.60
2019-03-23T19:34:01.233Z,13.60
2019-03-23T19:36:32.903Z,13.60
2019-03-23T19:39:06.858Z,13.60
2019-03-23T19:41:38.531Z,13.40
2019-03-23T19:44:11.184Z,13.30
2019-03-23T19:46:42.827Z,13.20
2019-03-23T19:49:14.423Z,12.90
2019-03-23T19:51:46.363Z,13.10
2019-03-23T19:54:18.047Z,13.00
2019-03-23T19:56:49.943Z,12.90
2019-03-23T19:59:21.671Z,12.70
2019-03-23T20:01:53.425Z,12.50
2019-03-23T20:04:25.108Z,12.60
2019-03-23T20:06:56.915Z,12.70
2019-03-23T20:09:28.695Z,12.50
2019-03-23T20:12:00.391Z,12.30
2019-03-23T20:14:50.843Z,12.20
2019-03-23T20:17:22.478Z,12.10
2019-03-23T20:19:54.191Z,12.10
2019-03-23T20:22:25.977Z,12.00
2019-03-23T20:24:57.655Z,11.90
2019-03-23T20:27:29.331Z,11.70
2019-03-23T20:30:00.997Z,11.60
2019-03-23T20:32:32.683Z,11.40
2019-03-23T20:35:04.640Z,11.40
2019-03-23T20:37:36.334Z,11.30
2019-03-23T20:40:10.075Z,11.30
2019-03-23T20:42:43.774Z,11.30
2019-03-23T20:45:20.923Z,11.20
2019-03-23T20:47:52.669Z,11.10
2019-03-23T20:50:24.323Z,11.20
2019-03-23T20:52:56.427Z,11.10
2019-03-23T20:55:40.587Z,11.10
2019-03-23T20:58:12.255Z,11.00
2019-03-23T21:00:43.887Z,11.00
2019-03-23T21:03:15.538Z,10.80
2019-03-23T21:05:47.179Z,10.60
2019-03-23T21:08:18.871Z,10.50
2019-03-23T21:10:50.541Z,10.40
2019-03-23T21:13:22.315Z,10.50
2019-03-23T21:15:53.908Z,10.60
2019-03-23T21:18:25.587Z,10.60
2019-03-23T21:20:57.227Z,10.50
2019-03-23T21:23:28.847Z,10.50
2019-03-23T21:26:00.453Z,10.20
2019-03-23T21:28:32.154Z,10.10
2019-03-23T21:31:03.758Z,9.90
2019-03-23T21:33:38.881Z,10.00
2019-03-23T21:36:08.926Z,9.70
2019-03-23T21:38:40.529Z,9.80
2019-03-23T21:41:12.149Z,9.50
2019-03-23T21:43:43.799Z,9.50
2019-03-23T21:46:15.709Z,9.50
2019-03-23T21:48:47.484Z,9.40
2019-03-23T21:51:19.230Z,9.60
2019-03-23T21:53:51.133Z,9.60
2019-03-23T21:56:23.051Z,9.50
2019-03-23T21:58:54.724Z,9.60
2019-03-23T22:01:26.530Z,9.60
2019-03-23T22:03:58.200Z,9.50
2019-03-23T22:06:29.927Z,9.60
2019-03-23T22:09:01.547Z,9.60
2019-03-23T22:11:34.791Z,9.50
2019-03-23T22:14:06.411Z,9.50
2019-03-23T22:16:38.192Z,9.30
2019-03-23T22:19:28.584Z,9.20
2019-03-23T22:22:00.366Z,9.10
2019-03-23T22:24:31.947Z,9.00
2019-03-23T22:27:03.585Z,9.00
2019-03-23T22:29:35.199Z,9.10
2019-03-23T22:32:06.937Z,9.00
2019-03-23T22:34:38.774Z,9.00
2019-03-23T22:37:10.383Z,8.90
2019-03-23T22:39:41.984Z,8.90
2019-03-23T22:42:13.620Z,9.00
2019-03-23T22:44:52.451Z,9.00
2019-03-23T22:47:19.331Z,8.90
2019-03-23T22:49:50.947Z,9.00
2019-03-23T22:52:22.614Z,9.10
2019-03-23T22:54:54.554Z,8.90
2019-03-23T22:57:26.924Z,8.70
2019-03-23T22:59:58.547Z,8.40
2019-03-23T23:02:30.218Z,8.40
2019-03-23T23:05:01.982Z,8.40
2019-03-23T23:07:34.093Z,8.20
2019-03-23T23:10:06.493Z,8.20
2019-03-23T23:12:38.107Z,8.40
2019-03-23T23:15:09.848Z,8.50
2019-03-23T23:17:41.609Z,8.40
2019-03-23T23:20:24.211Z,8.30
2019-03-23T23:22:55.822Z,8.20
2019-03-23T23:25:27.538Z,8.20
2019-03-23T23:27:59.216Z,7.90
2019-03-23T23:30:30.925Z,8.00
2019-03-23T23:33:02.624Z,8.00
2019-03-23T23:35:34.546Z,7.90
2019-03-23T23:38:06.149Z,7.60
2019-03-23T23:40:37.796Z,7.60
2019-03-23T23:43:09.410Z,7.70
2019-03-23T23:45:41.235Z,7.70
2019-03-23T23:48:12.845Z,7.50
2019-03-23T23:50:44.447Z,7.50
2019-03-23T23:53:16.086Z,7.60
2019-03-23T23:55:47.937Z,7.40
2019-03-23T23:58:19.593Z,7.40
